createdAt,value
2018-01-31T01:52:20.675Z,88.67
2018-01-31T01:52:33.494Z,86.76
2018-01-31T01:53:37.613Z,86.46
2018-01-31T01:54:41.840Z,86.79
2018-01-31T01:55:45.966Z,87.04
2018-01-31T01:56:50.118Z,86.86
2018-01-31T01:57:54.382Z,86.61
2018-01-31T01:58:58.516Z,86.51
2018-01-31T02:00:05.869Z,86.67
2018-01-31T02:01:10.678Z,86.39
2018-01-31T02:02:14.806Z,85.90
2018-01-31T02:03:18.936Z,85.44
2018-01-31T02:04:23.774Z,85.23
2018-01-31T02:05:28.030Z,85.79
2018-01-31T02:06:32.748Z,86.12
2018-01-31T02:07:37.215Z,85.98
2018-01-31T02:08:41.337Z,86.10
2018-01-31T02:09:45.479Z,85.92
2018-01-31T02:10:49.729Z,85.92
2018-01-31T02:11:53.870Z,86.22
2018-01-31T02:12:58.058Z,85.56
2018-01-31T02:14:02.616Z,85.72
2018-01-31T02:15:08.555Z,85.73
2018-01-31T02:16:12.781Z,85.80
2018-01-31T02:17:16.913Z,85.24
2018-01-31T02:18:21.043Z,84.74
2018-01-31T02:19:25.229Z,84.77
2018-01-31T02:20:29.380Z,84.52
2018-01-31T02:21:33.530Z,84.65
2018-01-31T02:22:37.803Z,84.76
2018-01-31T02:23:42.162Z,84.91
2018-01-31T02:24:46.349Z,84.80
2018-01-31T02:25:50.534Z,84.79
2018-01-31T02:26:54.710Z,84.45
2018-01-31T02:27:58.893Z,84.27
2018-01-31T02:29:03.005Z,84.31
2018-01-31T02:30:08.079Z,84.20
2018-01-31T02:31:12.442Z,84.63
2018-01-31T02:32:17.195Z,84.32
2018-01-31T02:33:21.338Z,83.99
2018-01-31T02:34:25.520Z,83.73
2018-01-31T02:35:29.667Z,83.79
2018-01-31T02:36:33.832Z,83.88
2018-01-31T02:37:38.305Z,83.96
2018-01-31T02:38:51.541Z,83.58
2018-01-31T02:39:58.603Z,83.54
2018-01-31T02:41:02.849Z,83.94
2018-01-31T02:42:07.153Z,83.67
2018-01-31T02:43:11.414Z,83.46
2018-01-31T02:44:15.538Z,83.46
2018-01-31T02:45:20.180Z,83.28
2018-01-31T02:46:24.343Z,83.26
2018-01-31T02:47:28.490Z,83.17
2018-01-31T02:48:32.619Z,83.10
2018-01-31T02:49:36.869Z,82.74
2018-01-31T02:50:41.096Z,82.67
2018-01-31T02:51:45.230Z,82.82
2018-01-31T02:52:49.351Z,82.79
2018-01-31T02:53:53.578Z,82.84
2018-01-31T02:54:57.730Z,82.80
2018-01-31T02:56:01.958Z,82.89
2018-01-31T02:57:07.603Z,82.98
2018-01-31T02:58:11.839Z,83.26
2018-01-31T02:59:15.931Z,83.58
2018-01-31T03:00:20.198Z,83.45
2018-01-31T03:01:24.390Z,83.32
2018-01-31T03:02:28.602Z,83.54
2018-01-31T03:03:33.127Z,83.34
2018-01-31T03:04:37.822Z,83.71
2018-01-31T03:05:42.025Z,83.69
2018-01-31T03:06:46.152Z,83.48
2018-01-31T03:07:50.384Z,83.35
2018-01-31T03:08:54.577Z,83.47
2018-01-31T03:09:59.017Z,83.42
2018-01-31T03:11:03.163Z,83.29
2018-01-31T03:12:07.889Z,83.20
2018-01-31T03:13:12.045Z,83.04
2018-01-31T03:14:16.174Z,83.41
2018-01-31T03:15:20.526Z,83.89
2018-01-31T03:16:24.726Z,84.26
2018-01-31T03:17:28.893Z,84.13
2018-01-31T03:18:33.015Z,84.30
2018-01-31T03:19:37.723Z,83.90
2018-01-31T03:20:42.154Z,84.11
2018-01-31T03:21:46.262Z,84.19
2018-01-31T03:22:50.709Z,84.03
2018-01-31T03:23:54.955Z,84.42
2018-01-31T03:24:59.139Z,84.74
2018-01-31T03:26:05.223Z,84.92
2018-01-31T03:27:09.406Z,85.09
2018-01-31T03:28:14.795Z,85.41
2018-01-31T03:29:20.177Z,84.51
2018-01-31T03:30:24.350Z,84.22
2018-01-31T03:31:28.500Z,84.41
2018-01-31T03:32:32.649Z,84.46
2018-01-31T03:33:36.856Z,84.53
2018-01-31T03:34:41.090Z,85.09
2018-01-31T03:35:45.530Z,85.04
2018-01-31T03:36:49.689Z,84.83
2018-01-31T03:37:54.502Z,84.48
2018-01-31T03:38:58.687Z,84.22
2018-01-31T03:40:02.887Z,84.51
2018-01-31T03:41:07.859Z,84.52
2018-01-31T03:42:12.286Z,84.50
2018-01-31T03:43:16.478Z,84.28
2018-01-31T03:44:20.803Z,84.18
2018-01-31T03:45:25.409Z,83.68
2018-01-31T03:46:29.665Z,83.79
2018-01-31T03:47:33.829Z,83.71
2018-01-31T03:48:38.373Z,83.56
2018-01-31T03:49:42.466Z,83.55
2018-01-31T03:50:46.558Z,83.33
2018-01-31T03:51:50.722Z,83.23
2018-01-31T03:52:55.358Z,83.56
2018-01-31T03:54:00.090Z,83.50
2018-01-31T03:55:04.805Z,83.34
2018-01-31T03:56:09.568Z,83.43
2018-01-31T03:57:14.103Z,83.44
2018-01-31T03:58:18.262Z,83.49
2018-01-31T03:59:22.651Z,83.34
2018-01-31T04:00:27.042Z,83.68
2018-01-31T04:01:31.170Z,83.75
2018-01-31T04:02:35.670Z,83.30
2018-01-31T04:03:40.326Z,83.55
2018-01-31T04:04:44.845Z,83.57
2018-01-31T04:05:48.986Z,83.33
2018-01-31T04:06:53.218Z,83.40
2018-01-31T04:07:58.286Z,83.66
2018-01-31T04:09:02.442Z,83.59
2018-01-31T04:10:07.611Z,83.27
2018-01-31T04:11:11.760Z,83.42
2018-01-31T04:12:16.836Z,83.33
2018-01-31T04:13:20.933Z,83.20
2018-01-31T04:14:25.406Z,83.22
2018-01-31T04:15:29.863Z,83.07
2018-01-31T04:16:34.047Z,82.94
2018-01-31T04:17:38.263Z,83.32
2018-01-31T04:18:42.459Z,83.57
2018-01-31T04:19:46.602Z,83.55
2018-01-31T04:20:51.127Z,83.65
2018-01-31T04:21:55.353Z,83.55
2018-01-31T04:22:59.494Z,83.83
2018-01-31T04:24:03.681Z,84.28
2018-01-31T04:25:08.821Z,84.94
2018-01-31T04:26:12.957Z,85.61
2018-01-31T04:27:18.030Z,85.88
2018-01-31T04:28:22.153Z,86.32
2018-01-31T04:29:27.124Z,87.09
2018-01-31T04:30:31.254Z,87.13
2018-01-31T04:31:35.456Z,87.88
2018-01-31T04:32:39.570Z,87.94
2018-01-31T04:33:44.004Z,88.61
2018-01-31T04:34:48.213Z,88.70
2018-01-31T04:35:52.398Z,88.99
2018-01-31T04:36:56.780Z,89.23
2018-01-31T04:38:00.942Z,89.23
2018-01-31T04:39:05.264Z,89.13
2018-01-31T04:40:09.750Z,89.85
2018-01-31T04:41:13.952Z,89.99
2018-01-31T04:42:19.102Z,89.81
2018-01-31T04:43:23.286Z,90.19
2018-01-31T04:44:27.535Z,90.10
2018-01-31T04:45:31.894Z,90.28
2018-01-31T04:46:36.350Z,90.59
2018-01-31T04:47:40.478Z,90.50
2018-01-31T04:48:44.602Z,90.70
2018-01-31T04:49:48.834Z,90.81
2018-01-31T04:50:52.993Z,90.80
2018-01-31T04:51:57.470Z,90.66
2018-01-31T04:53:01.793Z,91.39
2018-01-31T04:54:05.938Z,91.22
2018-01-31T04:55:10.205Z,91.65
2018-01-31T04:56:14.343Z,92.04
2018-01-31T04:57:18.458Z,91.68
2018-01-31T04:58:25.003Z,91.89
2018-01-31T04:59:29.172Z,91.79
2018-01-31T05:00:33.683Z,91.95
2018-01-31T05:01:37.863Z,92.17
2018-01-31T05:02:42.046Z,91.95
2018-01-31T05:03:46.211Z,92.35
2018-01-31T05:04:50.663Z,92.11
2018-01-31T05:05:54.805Z,92.12
2018-01-31T05:06:58.972Z,92.23
2018-01-31T05:08:05.298Z,92.10
2018-01-31T05:09:09.682Z,92.01
2018-01-31T05:10:16.926Z,92.12
2018-01-31T05:11:21.426Z,92.21
2018-01-31T05:12:26.541Z,92.15
2018-01-31T05:13:30.686Z,92.87
2018-01-31T05:14:34.825Z,93.45
2018-01-31T05:15:39.406Z,93.47
2018-01-31T05:16:43.725Z,93.37
2018-01-31T05:17:47.854Z,93.01
2018-01-31T05:18:51.955Z,92.85
2018-01-31T05:19:56.126Z,92.79
2018-01-31T05:21:01.570Z,93.08
2018-01-31T05:22:05.821Z,92.92
2018-01-31T05:23:10.276Z,92.61
2018-01-31T05:24:14.406Z,93.06
2018-01-31T05:25:18.677Z,93.13
2018-01-31T05:26:22.857Z,92.96
2018-01-31T05:27:29.466Z,92.76
2018-01-31T05:28:34.438Z,92.69
2018-01-31T05:29:38.819Z,92.79
2018-01-31T05:30:43.045Z,93.06
2018-01-31T05:31:47.486Z,93.20
2018-01-31T05:32:53.157Z,93.39
2018-01-31T05:33:57.533Z,93.35
2018-01-31T05:35:01.699Z,94.14
2018-01-31T05:36:06.346Z,94.06
2018-01-31T05:37:10.597Z,94.60
2018-01-31T05:38:14.913Z,94.08
2018-01-31T05:39:19.058Z,93.77
2018-01-31T05:40:29.186Z,93.51
2018-01-31T05:41:33.376Z,93.84
2018-01-31T05:42:38.146Z,94.33
2018-01-31T05:43:44.321Z,94.29
2018-01-31T05:44:48.442Z,94.45
2018-01-31T05:45:52.714Z,94.36
2018-01-31T05:46:59.162Z,94.53
2018-01-31T05:48:03.379Z,94.73
2018-01-31T05:49:07.810Z,94.43
2018-01-31T05:50:11.987Z,94.47
2018-01-31T05:51:16.990Z,95.02
2018-01-31T05:52:21.194Z,95.17
2018-01-31T05:53:25.342Z,95.24
2018-01-31T05:54:29.519Z,94.94
2018-01-31T05:55:34.059Z,95.20
2018-01-31T05:56:38.997Z,95.12
2018-01-31T05:57:43.259Z,95.38
2018-01-31T05:58:47.429Z,95.24
2018-01-31T05:59:51.626Z,95.13
2018-01-31T06:00:55.918Z,95.22
2018-01-31T06:02:00.335Z,95.17
2018-01-31T06:03:04.560Z,95.56
2018-01-31T06:04:08.800Z,95.67
2018-01-31T06:05:13.079Z,95.64
2018-01-31T06:06:17.219Z,95.71
2018-01-31T06:07:21.425Z,95.56
2018-01-31T06:08:26.238Z,95.55
2018-01-31T06:09:31.175Z,95.55
2018-01-31T06:10:35.312Z,95.45
2018-01-31T06:11:39.502Z,95.24
2018-01-31T06:12:43.690Z,95.48
2018-01-31T06:13:47.874Z,95.59
2018-01-31T06:14:52.125Z,95.31
2018-01-31T06:17:06.122Z,95.82
2018-01-31T06:18:10.296Z,96.03
2018-01-31T06:19:14.787Z,95.75
2018-01-31T06:20:19.214Z,95.85
2018-01-31T06:21:23.381Z,95.89
2018-01-31T06:22:27.568Z,95.87
2018-01-31T06:23:31.798Z,96.04
2018-01-31T06:24:35.932Z,96.13
2018-01-31T06:25:41.284Z,96.15
2018-01-31T06:26:45.535Z,96.30
2018-01-31T06:27:49.666Z,96.23
2018-01-31T06:28:53.850Z,96.29
2018-01-31T06:29:58.009Z,96.29
2018-01-31T06:31:03.044Z,96.36
2018-01-31T06:32:07.614Z,96.26
2018-01-31T06:33:11.851Z,96.26
2018-01-31T06:34:15.991Z,96.32
2018-01-31T06:35:20.103Z,96.25
2018-01-31T06:36:24.449Z,96.13
2018-01-31T06:37:28.956Z,96.21
2018-01-31T06:38:33.907Z,96.10
2018-01-31T06:39:38.996Z,96.15
2018-01-31T06:40:43.218Z,96.29
2018-01-31T06:41:47.452Z,96.23
2018-01-31T06:42:51.719Z,96.20
2018-01-31T06:43:56.246Z,96.31
2018-01-31T06:45:00.398Z,96.38
2018-01-31T06:46:04.886Z,96.45
2018-01-31T06:47:09.034Z,96.37
2018-01-31T06:48:13.303Z,96.32
2018-01-31T06:49:17.540Z,96.40
2018-01-31T06:50:22.181Z,96.27
2018-01-31T06:51:26.447Z,96.23
2018-01-31T06:52:30.650Z,96.19
2018-01-31T06:53:34.808Z,96.12
2018-01-31T06:54:39.641Z,96.04
2018-01-31T06:55:43.811Z,95.99
2018-01-31T06:56:48.043Z,95.86
2018-01-31T06:57:52.169Z,95.90
2018-01-31T06:58:56.338Z,95.62
2018-01-31T07:00:00.636Z,95.59
2018-01-31T07:01:04.959Z,95.61
2018-01-31T07:02:09.201Z,95.60
2018-01-31T07:03:13.683Z,95.59
2018-01-31T07:04:17.944Z,95.57
2018-01-31T07:05:22.193Z,95.47
2018-01-31T07:06:26.402Z,95.44
2018-01-31T07:07:31.206Z,95.42
2018-01-31T07:08:35.391Z,95.51
2018-01-31T07:09:39.814Z,95.38
2018-01-31T07:10:44.163Z,95.36
2018-01-31T07:11:48.284Z,95.38
2018-01-31T07:12:52.590Z,95.39
2018-01-31T07:13:56.864Z,95.20
2018-01-31T07:15:03.376Z,95.11
2018-01-31T07:16:07.999Z,95.07
2018-01-31T07:17:12.580Z,95.06
2018-01-31T07:18:16.789Z,95.24
2018-01-31T07:19:20.970Z,95.25
2018-01-31T07:20:25.174Z,95.28
2018-01-31T07:21:29.933Z,95.40
2018-01-31T07:22:34.172Z,95.49
2018-01-31T07:23:38.305Z,95.42
2018-01-31T07:24:43.083Z,95.39
2018-01-31T07:25:47.293Z,95.37
2018-01-31T07:26:51.452Z,95.46
2018-01-31T07:27:56.030Z,95.53
2018-01-31T07:29:00.307Z,95.55
2018-01-31T07:30:06.281Z,95.69
2018-01-31T07:31:11.366Z,95.54
2018-01-31T07:32:15.526Z,95.51
2018-01-31T07:33:19.768Z,95.53
2018-01-31T07:34:24.316Z,95.45
2018-01-31T07:35:28.492Z,95.42
2018-01-31T07:36:32.643Z,95.35
2018-01-31T07:37:36.835Z,95.29
2018-01-31T07:38:41.707Z,95.36
2018-01-31T07:39:45.838Z,95.32
2018-01-31T07:40:51.290Z,95.24
2018-01-31T07:41:55.463Z,95.22
2018-01-31T07:42:59.737Z,95.32
2018-01-31T07:44:03.886Z,95.11
2018-01-31T07:45:08.122Z,94.98
2018-01-31T07:46:12.330Z,94.85
2018-01-31T07:47:16.485Z,94.85
2018-01-31T07:48:20.832Z,94.59
2018-01-31T07:49:25.196Z,94.65
2018-01-31T07:50:29.376Z,94.60
2018-01-31T07:51:33.642Z,94.58
2018-01-31T07:52:37.801Z,94.55
2018-01-31T07:53:42.327Z,94.47
2018-01-31T07:54:47.698Z,94.33
2018-01-31T07:55:51.960Z,94.22
2018-01-31T07:56:56.126Z,93.99
2018-01-31T07:58:00.403Z,93.93
2018-01-31T07:59:04.636Z,93.77
2018-01-31T08:00:09.414Z,93.61
2018-01-31T08:01:13.691Z,93.32
2018-01-31T08:02:17.908Z,93.33
2018-01-31T08:03:22.106Z,93.31
2018-01-31T08:04:26.402Z,93.36
2018-01-31T08:05:30.759Z,93.21
2018-01-31T08:06:35.990Z,93.25
2018-01-31T08:07:40.323Z,93.09
2018-01-31T08:08:45.101Z,92.90
2018-01-31T08:09:49.259Z,92.64
2018-01-31T08:10:54.043Z,92.53
2018-01-31T08:11:58.343Z,92.21
2018-01-31T08:13:02.471Z,92.27
2018-01-31T08:14:06.628Z,92.27
2018-01-31T08:15:12.880Z,92.62
2018-01-31T08:16:17.168Z,92.80
2018-01-31T08:17:21.520Z,92.92
2018-01-31T08:18:25.762Z,92.78
2018-01-31T08:19:30.237Z,92.94
2018-01-31T08:20:34.410Z,93.27
2018-01-31T08:21:38.642Z,93.42
2018-01-31T08:22:42.838Z,93.63
2018-01-31T08:23:47.006Z,93.83
2018-01-31T08:24:51.256Z,93.90
2018-01-31T08:25:55.832Z,93.85
2018-01-31T08:27:00.026Z,93.95
2018-01-31T08:28:04.255Z,93.86
2018-01-31T08:29:08.434Z,93.93
2018-01-31T08:30:14.368Z,94.01
2018-01-31T08:31:18.613Z,94.01
2018-01-31T08:32:22.885Z,94.17
2018-01-31T08:33:27.084Z,94.36
2018-01-31T08:34:31.490Z,94.44
2018-01-31T08:35:36.762Z,94.61
2018-01-31T08:36:41.639Z,94.43
2018-01-31T08:37:46.746Z,94.45
2018-01-31T08:38:51.196Z,94.54
2018-01-31T08:39:55.403Z,94.53
2018-01-31T08:40:59.909Z,94.66
2018-01-31T08:42:04.095Z,94.60
2018-01-31T08:43:08.307Z,94.67
2018-01-31T08:44:12.463Z,94.68
2018-01-31T08:45:17.479Z,94.78
2018-01-31T08:46:22.008Z,94.55
2018-01-31T08:47:26.191Z,94.49
2018-01-31T08:48:30.702Z,94.51
2018-01-31T08:49:34.863Z,94.40
2018-01-31T08:50:39.134Z,94.29
2018-01-31T08:51:43.720Z,94.10
2018-01-31T08:52:47.870Z,94.00
2018-01-31T08:53:52.187Z,93.75
2018-01-31T08:54:56.393Z,93.22
2018-01-31T08:56:00.740Z,92.78
2018-01-31T08:57:04.967Z,92.44
2018-01-31T08:58:09.202Z,92.63
2018-01-31T08:59:13.541Z,92.27
2018-01-31T09:00:17.966Z,92.14
2018-01-31T09:01:22.157Z,91.91
2018-01-31T09:02:26.393Z,91.72
2018-01-31T09:03:30.605Z,91.57
2018-01-31T09:04:35.207Z,91.71
2018-01-31T09:05:40.273Z,91.60
2018-01-31T09:06:44.439Z,91.50
2018-01-31T09:07:49.558Z,90.66
2018-01-31T09:08:53.728Z,90.36
2018-01-31T09:09:57.992Z,90.45
2018-01-31T09:11:02.534Z,90.88
2018-01-31T09:12:06.704Z,90.18
2018-01-31T09:13:10.963Z,90.30
2018-01-31T09:14:15.081Z,90.55
2018-01-31T09:15:19.650Z,91.10
2018-01-31T09:16:24.383Z,91.17
2018-01-31T09:17:29.293Z,91.58
2018-01-31T09:18:33.683Z,91.63
2018-01-31T09:19:38.094Z,91.88
2018-01-31T09:20:43.480Z,91.55
2018-01-31T09:21:47.675Z,91.66
2018-01-31T09:22:51.908Z,91.60
2018-01-31T09:23:56.374Z,91.25
2018-01-31T09:25:00.538Z,91.67
2018-01-31T09:26:04.819Z,91.55
2018-01-31T09:27:09.097Z,90.99
2018-01-31T09:28:13.250Z,90.87
2018-01-31T09:29:17.411Z,90.84
2018-01-31T09:30:22.418Z,90.17
2018-01-31T09:31:26.617Z,90.52
2018-01-31T09:32:30.952Z,90.37
2018-01-31T09:33:35.130Z,90.63
2018-01-31T09:34:39.379Z,90.68
2018-01-31T09:35:43.543Z,90.31
2018-01-31T09:36:48.054Z,90.12
2018-01-31T09:37:52.397Z,90.37
2018-01-31T09:38:57.529Z,90.48
2018-01-31T09:40:01.801Z,90.46
2018-01-31T09:41:06.074Z,89.77
2018-01-31T09:42:10.288Z,89.63
2018-01-31T09:43:14.506Z,89.70
2018-01-31T09:44:18.715Z,89.60
2018-01-31T09:45:23.445Z,89.55
2018-01-31T09:46:27.714Z,89.54
2018-01-31T09:47:31.898Z,89.24
2018-01-31T09:48:36.213Z,88.92
2018-01-31T09:49:40.745Z,89.02
2018-01-31T09:50:44.998Z,88.65
2018-01-31T09:51:49.225Z,88.92
2018-01-31T09:52:53.397Z,88.72
2018-01-31T09:53:58.128Z,88.59
2018-01-31T09:55:02.320Z,88.61
2018-01-31T09:56:06.910Z,87.71
2018-01-31T09:57:11.147Z,87.25
2018-01-31T09:58:15.369Z,87.59
2018-01-31T09:59:19.670Z,87.90
2018-01-31T10:00:24.852Z,87.72
2018-01-31T10:01:29.034Z,87.50
2018-01-31T10:02:33.616Z,87.67
2018-01-31T10:03:37.960Z,87.80
2018-01-31T10:04:42.058Z,87.79
2018-01-31T10:05:46.248Z,87.64
2018-01-31T10:06:50.483Z,87.33
2018-01-31T10:07:55.306Z,87.54
2018-01-31T10:08:59.602Z,87.35
2018-01-31T10:10:03.780Z,87.30
2018-01-31T10:11:08.088Z,87.60
2018-01-31T10:12:12.292Z,87.21
2018-01-31T10:13:16.486Z,86.53
2018-01-31T10:14:20.744Z,87.13
2018-01-31T10:16:27.154Z,87.09
2018-01-31T10:17:31.437Z,86.60
2018-01-31T10:18:35.788Z,86.83
2018-01-31T10:19:40.774Z,86.64
2018-01-31T10:20:45.075Z,87.01
2018-01-31T10:21:49.355Z,86.95
2018-01-31T10:22:53.627Z,86.82
2018-01-31T10:23:57.877Z,86.97
2018-01-31T10:25:02.078Z,87.06
2018-01-31T10:26:06.605Z,86.83
2018-01-31T10:27:10.846Z,86.26
2018-01-31T10:28:15.071Z,86.44
2018-01-31T10:29:19.251Z,86.29
2018-01-31T10:30:23.693Z,86.73
2018-01-31T10:31:27.862Z,86.80
2018-01-31T10:32:32.495Z,86.45
2018-01-31T10:33:36.778Z,86.51
2018-01-31T10:34:40.954Z,86.18
2018-01-31T10:35:45.106Z,86.05
2018-01-31T10:36:49.359Z,85.95
2018-01-31T10:37:53.521Z,85.74
2018-01-31T10:38:58.890Z,85.87
2018-01-31T10:40:03.106Z,86.08
2018-01-31T10:41:07.344Z,85.50
2018-01-31T10:42:11.518Z,85.23
2018-01-31T10:43:15.710Z,85.37
2018-01-31T10:44:19.933Z,85.21
2018-01-31T10:45:24.750Z,85.34
2018-01-31T10:46:29.346Z,85.27
2018-01-31T10:47:33.726Z,84.93
2018-01-31T10:48:37.972Z,85.11
2018-01-31T10:49:42.208Z,84.89
2018-01-31T10:50:47.434Z,84.87
2018-01-31T10:51:51.671Z,84.59
2018-01-31T10:52:55.976Z,84.65
2018-01-31T10:57:28.683Z,84.55
2018-01-31T10:57:28.912Z,84.39
2018-01-31T10:58:17.804Z,84.44
2018-01-31T10:59:21.978Z,84.84
2018-01-31T11:00:31.117Z,84.54
2018-01-31T11:01:35.359Z,84.70
2018-01-31T11:02:39.683Z,84.22
2018-01-31T11:03:44.252Z,84.42
2018-01-31T11:04:48.528Z,84.17
2018-01-31T11:05:52.713Z,83.59
2018-01-31T11:06:57.277Z,83.32
2018-01-31T11:08:02.454Z,83.28
2018-01-31T11:09:07.231Z,83.81
2018-01-31T11:10:11.798Z,83.47
2018-01-31T11:11:16.119Z,83.68
2018-01-31T11:12:20.432Z,83.35
2018-01-31T11:13:24.558Z,83.44
2018-01-31T11:14:28.875Z,83.13
2018-01-31T11:15:33.355Z,83.07
2018-01-31T11:16:37.633Z,83.07
2018-01-31T11:17:41.826Z,82.88
2018-01-31T11:18:46.165Z,83.03
2018-01-31T11:19:50.418Z,82.58
2018-01-31T11:20:55.202Z,82.78
2018-01-31T11:21:59.587Z,82.92
2018-01-31T11:23:04.129Z,82.65
2018-01-31T11:24:08.464Z,82.12
2018-01-31T11:25:12.664Z,82.22
2018-01-31T11:26:16.937Z,82.80
2018-01-31T11:27:21.267Z,82.83
2018-01-31T11:28:25.613Z,82.47
2018-01-31T11:29:29.937Z,81.92
2018-01-31T11:30:34.124Z,81.78
2018-01-31T11:31:39.490Z,81.44
2018-01-31T11:32:44.052Z,81.54
2018-01-31T11:33:48.377Z,81.46
2018-01-31T11:34:53.515Z,81.55
2018-01-31T11:35:57.863Z,81.96
2018-01-31T11:37:03.071Z,81.77
2018-01-31T11:38:08.007Z,81.18
2018-01-31T11:39:12.308Z,81.12
2018-01-31T11:40:16.474Z,81.37
2018-01-31T11:41:20.749Z,81.22
2018-01-31T11:42:25.280Z,81.74
2018-01-31T11:43:31.715Z,81.21
2018-01-31T11:44:36.715Z,81.83
2018-01-31T11:45:41.409Z,82.34
2018-01-31T11:46:45.704Z,81.63
2018-01-31T11:47:50.883Z,81.97
2018-01-31T11:48:55.064Z,82.23
2018-01-31T11:50:00.155Z,81.81
2018-01-31T11:51:07.489Z,82.25
2018-01-31T11:52:13.300Z,82.24
2018-01-31T11:53:17.610Z,82.38
2018-01-31T11:54:22.098Z,82.51
2018-01-31T11:55:26.328Z,82.24
2018-01-31T11:57:35.119Z,82.52
2018-01-31T11:58:40.622Z,82.57
2018-01-31T11:59:45.448Z,82.67
2018-01-31T12:00:50.449Z,83.01
2018-01-31T12:01:55.140Z,82.93
2018-01-31T12:02:59.969Z,82.59
2018-01-31T12:04:05.707Z,82.45
2018-01-31T12:05:10.535Z,82.76
2018-01-31T12:06:34.577Z,82.57
2018-01-31T12:07:40.289Z,82.83
2018-01-31T12:08:58.020Z,83.75
2018-01-31T12:10:04.378Z,85.01
2018-01-31T12:11:08.592Z,85.70
2018-01-31T12:12:21.473Z,85.84
2018-01-31T12:13:46.184Z,86.58
2018-01-31T12:15:27.560Z,85.17
2018-01-31T12:17:40.108Z,85.42
2018-01-31T12:18:53.132Z,84.96
2018-01-31T12:22:13.832Z,84.83
2018-01-31T12:27:34.087Z,84.96
2018-01-31T12:28:51.460Z,84.76
2018-01-31T12:31:09.001Z,84.98
2018-01-31T12:33:21.433Z,84.91
2018-01-31T12:36:41.763Z,84.89
2018-01-31T12:37:56.659Z,84.08
2018-01-31T12:39:00.229Z,84.03
2018-01-31T12:40:02.991Z,83.97
2018-01-31T12:41:05.968Z,83.71
2018-01-31T12:42:08.787Z,84.30
2018-01-31T12:43:11.514Z,83.90
2018-01-31T12:44:14.347Z,83.25
2018-01-31T12:45:17.360Z,83.57
2018-01-31T12:46:32.720Z,83.32
2018-01-31T12:48:02.898Z,83.17
2018-01-31T12:49:12.889Z,82.81
2018-01-31T12:51:32.032Z,82.55
2018-01-31T12:53:52.838Z,82.27
2018-01-31T12:55:07.892Z,82.43
2018-01-31T12:56:23.699Z,82.29
2018-01-31T12:57:33.509Z,80.60
2018-01-31T12:58:48.392Z,81.07
2018-01-31T13:00:05.216Z,80.91
2018-01-31T13:02:25.995Z,80.86
2018-01-31T13:03:40.386Z,81.32
2018-01-31T13:04:56.606Z,81.41
2018-01-31T13:10:20.087Z,81.76
2018-01-31T13:13:36.151Z,82.18
2018-01-31T13:14:53.003Z,83.10
2018-01-31T13:17:38.154Z,82.73
2018-01-31T13:18:53.168Z,83.76
2018-01-31T13:22:09.174Z,83.39
2018-01-31T13:23:14.549Z,84.65
2018-01-31T13:26:32.191Z,84.98
2018-01-31T13:29:47.890Z,85.29
2018-01-31T13:31:00.956Z,85.83
2018-01-31T13:32:16.324Z,85.64
2018-01-31T13:34:31.979Z,85.83
2018-01-31T13:36:55.612Z,85.55
2018-01-31T13:38:12.478Z,86.22
2018-01-31T13:40:31.679Z,86.10
2018-01-31T13:44:06.657Z,85.97
2018-01-31T13:45:22.008Z,85.41
2018-01-31T13:48:39.778Z,85.16
2018-01-31T13:49:54.972Z,84.80
2018-01-31T13:51:24.019Z,85.00
2018-01-31T13:52:42.623Z,84.77
2018-01-31T13:56:01.741Z,84.40
2018-01-31T13:59:21.783Z,84.42
2018-01-31T14:00:39.838Z,84.13
2018-01-31T14:04:03.849Z,83.91
2018-01-31T14:07:21.715Z,84.44
2018-01-31T14:08:36.687Z,84.03
2018-01-31T14:09:52.045Z,83.59
2018-01-31T14:11:08.065Z,83.79
2018-01-31T14:14:24.923Z,83.87
2018-01-31T14:16:42.750Z,83.66
2018-01-31T14:20:00.642Z,83.10
2018-01-31T14:24:32.163Z,83.18
2018-01-31T14:25:47.152Z,83.46
2018-01-31T14:29:04.303Z,83.64
2018-01-31T14:32:23.254Z,83.14
2018-01-31T14:35:42.435Z,82.45
2018-01-31T14:36:45.242Z,82.57
2018-01-31T14:37:48.284Z,82.70
2018-01-31T14:38:51.055Z,82.58
2018-01-31T14:39:53.897Z,82.78
2018-01-31T14:40:57.003Z,82.58
2018-01-31T14:41:59.775Z,82.54
2018-01-31T14:43:03.136Z,82.22
2018-01-31T14:44:05.904Z,82.43
2018-01-31T14:45:08.813Z,82.22
2018-01-31T14:46:12.168Z,82.40
2018-01-31T14:47:15.122Z,82.46
2018-01-31T14:48:17.861Z,82.31
2018-01-31T14:49:20.651Z,82.28
2018-01-31T14:50:23.368Z,82.07
2018-01-31T14:51:26.110Z,81.75
2018-01-31T14:52:28.846Z,81.65
2018-01-31T14:53:31.586Z,81.35
2018-01-31T14:54:34.391Z,81.59
2018-01-31T14:55:37.126Z,81.85
2018-01-31T14:56:39.822Z,82.31
2018-01-31T14:57:42.537Z,81.81
2018-01-31T14:58:45.243Z,81.62
2018-01-31T14:59:48.057Z,82.07
2018-01-31T15:00:50.893Z,82.70
2018-01-31T15:01:53.633Z,83.29
2018-01-31T15:02:56.438Z,83.51
2018-01-31T15:03:59.165Z,84.18
2018-01-31T15:05:02.224Z,84.03
2018-01-31T15:06:04.967Z,84.33
2018-01-31T15:07:07.689Z,84.85
2018-01-31T15:08:10.399Z,84.74
2018-01-31T15:09:13.152Z,85.06
2018-01-31T15:10:16.552Z,85.67
2018-01-31T15:11:19.524Z,86.22
2018-01-31T15:12:22.352Z,86.78
2018-01-31T15:13:25.158Z,86.37
2018-01-31T15:14:27.883Z,86.50
2018-01-31T15:15:30.731Z,84.74
2018-01-31T15:16:33.602Z,85.76
2018-01-31T15:17:36.956Z,83.82
2018-01-31T15:18:39.773Z,82.25
2018-01-31T15:19:42.534Z,82.96
2018-01-31T15:20:45.234Z,84.01
2018-01-31T15:21:48.035Z,84.62
2018-01-31T15:22:50.794Z,83.91
2018-01-31T15:23:53.939Z,84.38
2018-01-31T15:24:56.680Z,83.75
2018-01-31T15:25:59.391Z,83.62
2018-01-31T15:27:02.739Z,83.77
2018-01-31T15:28:05.522Z,84.54
2018-01-31T15:29:08.251Z,84.31
2018-01-31T15:31:18.362Z,84.54
2018-01-31T15:32:21.280Z,84.65
2018-01-31T15:33:24.276Z,84.90
2018-01-31T15:34:27.274Z,84.67
2018-01-31T15:35:30.875Z,84.60
2018-01-31T15:36:33.790Z,83.99
2018-01-31T15:37:36.726Z,83.65
2018-01-31T15:38:39.804Z,84.05
2018-01-31T15:39:42.575Z,83.97
2018-01-31T15:40:45.303Z,84.15
2018-01-31T15:41:49.347Z,84.05
2018-01-31T15:42:52.081Z,84.27
2018-01-31T15:43:54.889Z,83.58
2018-01-31T15:44:57.688Z,83.86
2018-01-31T15:46:00.694Z,84.31
2018-01-31T15:47:03.442Z,83.44
2018-01-31T15:48:06.476Z,83.54
2018-01-31T15:49:09.429Z,83.62
2018-01-31T15:50:12.391Z,83.32
2018-01-31T15:51:15.297Z,83.58
2018-01-31T15:52:19.717Z,83.64
2018-01-31T15:53:22.637Z,83.50
2018-01-31T15:54:25.658Z,83.70
2018-01-31T15:55:28.539Z,83.86
2018-01-31T15:56:31.347Z,82.96
2018-01-31T15:57:34.158Z,83.34
2018-01-31T15:58:37.012Z,83.36
2018-01-31T15:59:40.093Z,83.51
2018-01-31T16:00:42.988Z,83.70
2018-01-31T16:01:45.696Z,83.74
2018-01-31T16:02:48.529Z,83.64
2018-01-31T16:03:51.390Z,83.53
2018-01-31T16:04:54.134Z,82.99
2018-01-31T16:05:57.108Z,82.94
2018-01-31T16:07:00.981Z,83.24
2018-01-31T16:08:03.714Z,83.62
2018-01-31T16:09:06.541Z,83.48
2018-01-31T16:10:09.311Z,83.40
2018-01-31T16:11:12.149Z,83.85
2018-01-31T16:12:14.854Z,83.69
2018-01-31T16:13:17.939Z,83.95
2018-01-31T16:14:20.694Z,84.25
2018-01-31T16:15:23.833Z,84.54
2018-01-31T16:16:28.635Z,84.49
2018-01-31T16:17:33.190Z,84.58
2018-01-31T16:20:48.520Z,84.93
2018-01-31T16:21:52.746Z,84.65
2018-01-31T16:22:57.113Z,84.79
2018-01-31T16:24:02.160Z,84.66
2018-01-31T16:25:06.596Z,84.94
2018-01-31T16:26:11.703Z,84.72
2018-01-31T16:27:23.143Z,84.71
2018-01-31T16:29:07.444Z,84.91
2018-01-31T16:30:20.397Z,85.34
2018-01-31T16:31:33.314Z,84.45
2018-01-31T16:32:48.309Z,84.21
2018-01-31T16:33:52.909Z,84.70
2018-01-31T16:34:57.245Z,84.76
2018-01-31T16:36:02.734Z,83.86
2018-01-31T16:37:07.124Z,83.91
2018-01-31T16:38:11.363Z,83.20
2018-01-31T16:39:15.600Z,84.33
2018-01-31T16:40:20.171Z,83.92
2018-01-31T16:41:24.527Z,83.86
2018-01-31T16:42:28.848Z,83.63
2018-01-31T16:43:33.133Z,83.92
2018-01-31T16:44:37.518Z,83.68
2018-01-31T16:45:42.178Z,83.92
2018-01-31T16:46:47.178Z,84.29
2018-01-31T16:47:51.668Z,83.60
2018-01-31T16:48:55.947Z,83.30
2018-01-31T16:50:01.265Z,83.60
2018-01-31T16:51:05.847Z,83.16
2018-01-31T16:52:10.360Z,83.30
2018-01-31T16:53:15.313Z,83.39
2018-01-31T16:54:19.600Z,83.19
2018-01-31T16:55:23.864Z,83.44
2018-01-31T16:56:28.196Z,83.37
2018-01-31T16:57:32.419Z,83.54
2018-01-31T16:58:36.795Z,83.17
2018-01-31T16:59:41.191Z,83.44